sensor_id;sensor_type;location;lat;lon;timestamp;P1;durP1;ratioP1;P2;durP2;ratioP2
17606;SDS011;8922;52.240;20.980;2022-10-17T00:00:43;16.97;;;12.87;;
17606;SDS011;8922;52.240;20.980;2022-10-17T00:03:10;15.47;;;13.73;;
17606;SDS011;8922;52.240;20.980;2022-10-17T00:05:38;16.43;;;13.20;;
17606;SDS011;8922;52.240;20.980;2022-10-17T00:08:05;17.70;;;13.60;;
17606;SDS011;8922;52.240;20.980;2022-10-17T00:10:32;15.50;;;13.37;;
17606;SDS011;8922;52.240;20.980;2022-10-17T00:12:59;17.47;;;12.43;;
17606;SDS011;8922;52.240;20.980;2022-10-17T00:15:27;19.93;;;12.93;;
17606;SDS011;8922;52.240;20.980;2022-10-17T00:17:54;18.33;;;13.80;;
17606;SDS011;8922;52.240;20.980;2022-10-17T00:20:21;17.83;;;13.03;;
17606;SDS011;8922;52.240;20.980;2022-10-17T00:22:48;17.70;;;13.73;;
17606;SDS011;8922;52.240;20.980;2022-10-17T00:25:15;18.13;;;13.20;;
17606;SDS011;8922;52.240;20.980;2022-10-17T00:27:42;17.47;;;13.50;;
17606;SDS011;8922;52.240;20.980;2022-10-17T00:30:10;15.37;;;12.73;;
17606;SDS011;8922;52.240;20.980;2022-10-17T00:32:40;18.23;;;14.33;;
17606;SDS011;8922;52.240;20.980;2022-10-17T00:35:07;14.93;;;13.17;;
17606;SDS011;8922;52.240;20.980;2022-10-17T00:37:34;19.00;;;12.83;;
17606;SDS011;8922;52.240;20.980;2022-10-17T00:40:01;18.30;;;13.60;;
17606;SDS011;8922;52.240;20.980;2022-10-17T00:42:28;17.53;;;13.33;;
17606;SDS011;8922;52.240;20.980;2022-10-17T00:45:04;17.67;;;13.60;;
17606;SDS011;8922;52.240;20.980;2022-10-17T00:47:37;17.63;;;13.60;;
17606;SDS011;8922;52.240;20.980;2022-10-17T00:50:07;16.77;;;14.03;;
17606;SDS011;8922;52.240;20.980;2022-10-17T00:52:35;16.53;;;13.97;;
17606;SDS011;8922;52.240;20.980;2022-10-17T00:55:03;19.50;;;14.10;;
17606;SDS011;8922;52.240;20.980;2022-10-17T00:57:35;17.30;;;13.43;;
17606;SDS011;8922;52.240;20.980;2022-10-17T01:00:05;17.37;;;13.33;;
17606;SDS011;8922;52.240;20.980;2022-10-17T01:02:34;16.50;;;13.77;;
17606;SDS011;8922;52.240;20.980;2022-10-17T01:05:02;16.17;;;13.67;;
17606;SDS011;8922;52.240;20.980;2022-10-17T01:07:30;16.80;;;14.30;;
17606;SDS011;8922;52.240;20.980;2022-10-17T01:09:57;16.40;;;13.03;;
17606;SDS011;8922;52.240;20.980;2022-10-17T01:12:25;19.87;;;13.70;;
17606;SDS011;8922;52.240;20.980;2022-10-17T01:15:02;17.90;;;13.50;;
17606;SDS011;8922;52.240;20.980;2022-10-17T01:17:36;16.57;;;13.83;;
17606;SDS011;8922;52.240;20.980;2022-10-17T01:20:26;16.73;;;14.33;;
17606;SDS011;8922;52.240;20.980;2022-10-17T01:23:12;16.70;;;13.43;;
17606;SDS011;8922;52.240;20.980;2022-10-17T01:25:51;16.97;;;13.63;;
17606;SDS011;8922;52.240;20.980;2022-10-17T01:28:26;27.27;;;15.10;;
17606;SDS011;8922;52.240;20.980;2022-10-17T01:31:11;17.67;;;13.63;;
17606;SDS011;8922;52.240;20.980;2022-10-17T01:33:45;18.20;;;14.47;;
17606;SDS011;8922;52.240;20.980;2022-10-17T01:36:19;16.60;;;14.23;;
17606;SDS011;8922;52.240;20.980;2022-10-17T01:39:00;19.70;;;14.33;;
17606;SDS011;8922;52.240;20.980;2022-10-17T01:41:34;16.97;;;14.87;;
17606;SDS011;8922;52.240;20.980;2022-10-17T01:44:07;20.20;;;14.10;;
17606;SDS011;8922;52.240;20.980;2022-10-17T01:46:40;17.17;;;14.07;;
17606;SDS011;8922;52.240;20.980;2022-10-17T01:49:12;16.93;;;13.47;;
17606;SDS011;8922;52.240;20.980;2022-10-17T01:51:42;16.27;;;14.37;;
17606;SDS011;8922;52.240;20.980;2022-10-17T01:54:14;17.73;;;14.43;;
17606;SDS011;8922;52.240;20.980;2022-10-17T01:56:45;20.13;;;14.43;;
17606;SDS011;8922;52.240;20.980;2022-10-17T01:59:16;17.93;;;14.20;;
17606;SDS011;8922;52.240;20.980;2022-10-17T02:01:48;20.73;;;14.90;;
17606;SDS011;8922;52.240;20.980;2022-10-17T02:04:18;17.87;;;14.20;;
17606;SDS011;8922;52.240;20.980;2022-10-17T02:06:45;20.17;;;14.40;;
17606;SDS011;8922;52.240;20.980;2022-10-17T02:09:15;19.07;;;14.57;;
17606;SDS011;8922;52.240;20.980;2022-10-17T02:11:45;19.23;;;14.77;;
17606;SDS011;8922;52.240;20.980;2022-10-17T02:14:21;16.23;;;13.80;;
17606;SDS011;8922;52.240;20.980;2022-10-17T02:16:58;17.57;;;14.20;;
17606;SDS011;8922;52.240;20.980;2022-10-17T02:19:34;20.13;;;14.67;;
17606;SDS011;8922;52.240;20.980;2022-10-17T02:22:16;17.47;;;14.83;;
17606;SDS011;8922;52.240;20.980;2022-10-17T02:24:51;17.27;;;13.60;;
17606;SDS011;8922;52.240;20.980;2022-10-17T02:27:27;18.80;;;14.43;;
17606;SDS011;8922;52.240;20.980;2022-10-17T02:30:02;18.30;;;14.87;;
17606;SDS011;8922;52.240;20.980;2022-10-17T02:32:37;19.07;;;15.10;;
17606;SDS011;8922;52.240;20.980;2022-10-17T02:35:08;18.10;;;15.00;;
17606;SDS011;8922;52.240;20.980;2022-10-17T02:37:37;18.40;;;14.93;;
17606;SDS011;8922;52.240;20.980;2022-10-17T02:40:07;19.97;;;12.93;;
17606;SDS011;8922;52.240;20.980;2022-10-17T02:42:36;17.77;;;14.00;;
17606;SDS011;8922;52.240;20.980;2022-10-17T02:45:04;17.83;;;14.40;;
17606;SDS011;8922;52.240;20.980;2022-10-17T02:47:33;18.90;;;14.50;;
17606;SDS011;8922;52.240;20.980;2022-10-17T02:50:09;19.43;;;15.10;;
17606;SDS011;8922;52.240;20.980;2022-10-17T02:52:38;19.90;;;14.57;;
17606;SDS011;8922;52.240;20.980;2022-10-17T02:55:12;19.57;;;14.47;;
17606;SDS011;8922;52.240;20.980;2022-10-17T02:57:43;18.57;;;14.87;;
17606;SDS011;8922;52.240;20.980;2022-10-17T03:00:13;18.67;;;14.40;;
17606;SDS011;8922;52.240;20.980;2022-10-17T03:02:43;18.23;;;14.83;;
17606;SDS011;8922;52.240;20.980;2022-10-17T03:05:12;18.07;;;15.27;;
17606;SDS011;8922;52.240;20.980;2022-10-17T03:07:40;19.47;;;14.83;;
17606;SDS011;8922;52.240;20.980;2022-10-17T03:10:07;19.47;;;15.43;;
17606;SDS011;8922;52.240;20.980;2022-10-17T03:12:33;18.17;;;14.97;;
17606;SDS011;8922;52.240;20.980;2022-10-17T03:15:00;18.77;;;14.80;;
17606;SDS011;8922;52.240;20.980;2022-10-17T03:17:27;21.60;;;15.30;;
17606;SDS011;8922;52.240;20.980;2022-10-17T03:19:55;19.57;;;14.80;;
17606;SDS011;8922;52.240;20.980;2022-10-17T03:22:22;17.97;;;15.33;;
17606;SDS011;8922;52.240;20.980;2022-10-17T03:24:48;18.70;;;14.30;;
17606;SDS011;8922;52.240;20.980;2022-10-17T03:27:15;17.60;;;14.57;;
17606;SDS011;8922;52.240;20.980;2022-10-17T03:29:42;18.80;;;14.20;;
17606;SDS011;8922;52.240;20.980;2022-10-17T03:32:09;20.20;;;15.20;;
17606;SDS011;8922;52.240;20.980;2022-10-17T03:34:36;16.77;;;14.80;;
17606;SDS011;8922;52.240;20.980;2022-10-17T03:37:04;20.00;;;14.90;;
17606;SDS011;8922;52.240;20.980;2022-10-17T03:39:30;20.93;;;15.37;;
17606;SDS011;8922;52.240;20.980;2022-10-17T03:41:57;21.23;;;15.93;;
17606;SDS011;8922;52.240;20.980;2022-10-17T03:44:24;18.97;;;15.33;;
17606;SDS011;8922;52.240;20.980;2022-10-17T03:46:51;18.83;;;15.10;;
17606;SDS011;8922;52.240;20.980;2022-10-17T03:49:17;20.13;;;15.93;;
17606;SDS011;8922;52.240;20.980;2022-10-17T03:51:44;18.30;;;15.60;;
17606;SDS011;8922;52.240;20.980;2022-10-17T03:54:12;17.87;;;15.07;;
17606;SDS011;8922;52.240;20.980;2022-10-17T03:56:39;18.80;;;14.47;;
17606;SDS011;8922;52.240;20.980;2022-10-17T03:59:06;19.30;;;15.87;;
17606;SDS011;8922;52.240;20.980;2022-10-17T04:01:35;19.67;;;15.50;;
17606;SDS011;8922;52.240;20.980;2022-10-17T04:04:01;18.60;;;15.73;;
17606;SDS011;8922;52.240;20.980;2022-10-17T04:06:28;19.80;;;15.00;;
17606;SDS011;8922;52.240;20.980;2022-10-17T04:08:55;20.00;;;14.67;;
17606;SDS011;8922;52.240;20.980;2022-10-17T04:11:23;19.67;;;15.47;;
17606;SDS011;8922;52.240;20.980;2022-10-17T04:13:51;17.90;;;15.93;;
17606;SDS011;8922;52.240;20.980;2022-10-17T04:16:19;19.70;;;16.77;;
17606;SDS011;8922;52.240;20.980;2022-10-17T04:18:46;20.77;;;14.83;;
17606;SDS011;8922;52.240;20.980;2022-10-17T04:21:13;22.03;;;15.33;;
17606;SDS011;8922;52.240;20.980;2022-10-17T04:23:39;19.17;;;14.77;;
17606;SDS011;8922;52.240;20.980;2022-10-17T04:26:06;23.60;;;16.10;;
17606;SDS011;8922;52.240;20.980;2022-10-17T04:28:34;21.93;;;16.10;;
17606;SDS011;8922;52.240;20.980;2022-10-17T04:31:02;18.73;;;15.27;;
17606;SDS011;8922;52.240;20.980;2022-10-17T04:33:30;19.80;;;15.90;;
17606;SDS011;8922;52.240;20.980;2022-10-17T04:35:57;17.63;;;15.57;;
17606;SDS011;8922;52.240;20.980;2022-10-17T04:38:25;19.87;;;15.57;;
17606;SDS011;8922;52.240;20.980;2022-10-17T04:40:52;19.30;;;14.83;;
17606;SDS011;8922;52.240;20.980;2022-10-17T04:43:19;20.87;;;14.77;;
17606;SDS011;8922;52.240;20.980;2022-10-17T04:45:47;21.30;;;16.27;;
17606;SDS011;8922;52.240;20.980;2022-10-17T04:48:14;18.73;;;16.57;;
17606;SDS011;8922;52.240;20.980;2022-10-17T04:50:40;20.50;;;15.67;;
17606;SDS011;8922;52.240;20.980;2022-10-17T04:53:17;19.30;;;15.83;;
17606;SDS011;8922;52.240;20.980;2022-10-17T04:55:44;23.50;;;16.83;;
17606;SDS011;8922;52.240;20.980;2022-10-17T04:58:11;20.60;;;15.57;;
17606;SDS011;8922;52.240;20.980;2022-10-17T05:00:38;21.63;;;15.97;;
17606;SDS011;8922;52.240;20.980;2022-10-17T05:03:06;20.77;;;16.50;;
17606;SDS011;8922;52.240;20.980;2022-10-17T05:05:33;20.43;;;16.03;;
17606;SDS011;8922;52.240;20.980;2022-10-17T05:08:02;18.87;;;16.30;;
17606;SDS011;8922;52.240;20.980;2022-10-17T05:10:29;19.90;;;16.17;;
17606;SDS011;8922;52.240;20.980;2022-10-17T05:12:56;20.60;;;16.47;;
17606;SDS011;8922;52.240;20.980;2022-10-17T05:15:24;26.07;;;18.07;;
17606;SDS011;8922;52.240;20.980;2022-10-17T05:17:53;21.10;;;16.00;;
17606;SDS011;8922;52.240;20.980;2022-10-17T05:20:22;19.67;;;16.33;;
17606;SDS011;8922;52.240;20.980;2022-10-17T05:22:49;19.23;;;16.27;;
17606;SDS011;8922;52.240;20.980;2022-10-17T05:25:16;18.67;;;15.33;;
17606;SDS011;8922;52.240;20.980;2022-10-17T05:27:42;20.67;;;16.10;;
17606;SDS011;8922;52.240;20.980;2022-10-17T05:30:09;23.67;;;17.93;;
17606;SDS011;8922;52.240;20.980;2022-10-17T05:32:37;22.20;;;16.87;;
17606;SDS011;8922;52.240;20.980;2022-10-17T05:35:04;20.20;;;16.47;;
17606;SDS011;8922;52.240;20.980;2022-10-17T05:37:33;21.97;;;16.87;;
17606;SDS011;8922;52.240;20.980;2022-10-17T05:40:00;20.53;;;16.50;;
17606;SDS011;8922;52.240;20.980;2022-10-17T05:42:27;20.73;;;16.40;;
17606;SDS011;8922;52.240;20.980;2022-10-17T05:44:53;21.70;;;16.63;;
17606;SDS011;8922;52.240;20.980;2022-10-17T05:47:20;20.07;;;16.43;;
17606;SDS011;8922;52.240;20.980;2022-10-17T05:49:47;21.60;;;16.80;;
17606;SDS011;8922;52.240;20.980;2022-10-17T05:52:14;21.97;;;16.77;;
17606;SDS011;8922;52.240;20.980;2022-10-17T05:54:42;22.37;;;17.03;;
17606;SDS011;8922;52.240;20.980;2022-10-17T05:57:09;21.33;;;16.63;;
17606;SDS011;8922;52.240;20.980;2022-10-17T05:59:36;23.33;;;17.13;;
17606;SDS011;8922;52.240;20.980;2022-10-17T06:02:02;19.93;;;15.73;;
17606;SDS011;8922;52.240;20.980;2022-10-17T06:04:29;21.27;;;16.47;;
17606;SDS011;8922;52.240;20.980;2022-10-17T06:06:56;22.23;;;17.30;;
17606;SDS011;8922;52.240;20.980;2022-10-17T06:09:23;21.70;;;17.43;;
17606;SDS011;8922;52.240;20.980;2022-10-17T06:11:51;23.80;;;17.07;;
17606;SDS011;8922;52.240;20.980;2022-10-17T06:14:18;26.77;;;17.43;;
17606;SDS011;8922;52.240;20.980;2022-10-17T06:16:44;23.93;;;17.03;;
17606;SDS011;8922;52.240;20.980;2022-10-17T06:19:11;23.57;;;16.50;;
17606;SDS011;8922;52.240;20.980;2022-10-17T06:21:38;21.33;;;17.57;;
17606;SDS011;8922;52.240;20.980;2022-10-17T06:24:05;20.90;;;17.73;;
17606;SDS011;8922;52.240;20.980;2022-10-17T06:26:32;22.90;;;17.47;;
17606;SDS011;8922;52.240;20.980;2022-10-17T06:29:00;20.47;;;16.10;;
17606;SDS011;8922;52.240;20.980;2022-10-17T06:31:27;24.03;;;17.33;;
17606;SDS011;8922;52.240;20.980;2022-10-17T06:33:53;21.43;;;15.93;;
17606;SDS011;8922;52.240;20.980;2022-10-17T06:36:20;22.43;;;17.20;;
17606;SDS011;8922;52.240;20.980;2022-10-17T06:38:47;23.20;;;16.73;;
17606;SDS011;8922;52.240;20.980;2022-10-17T06:41:15;21.97;;;17.27;;
17606;SDS011;8922;52.240;20.980;2022-10-17T06:43:43;21.73;;;16.13;;
17606;SDS011;8922;52.240;20.980;2022-10-17T06:46:12;26.63;;;17.57;;
17606;SDS011;8922;52.240;20.980;2022-10-17T06:48:40;26.45;;;17.95;;
17606;SDS011;8922;52.240;20.980;2022-10-17T06:51:07;23.08;;;16.65;;
17606;SDS011;8922;52.240;20.980;2022-10-17T06:53:36;22.02;;;17.33;;
17606;SDS011;8922;52.240;20.980;2022-10-17T06:56:04;23.75;;;16.30;;
17606;SDS011;8922;52.240;20.980;2022-10-17T06:58:33;23.10;;;16.40;;
17606;SDS011;8922;52.240;20.980;2022-10-17T07:01:03;20.75;;;16.55;;
17606;SDS011;8922;52.240;20.980;2022-10-17T07:03:33;23.63;;;17.40;;
17606;SDS011;8922;52.240;20.980;2022-10-17T07:06:00;20.65;;;16.15;;
17606;SDS011;8922;52.240;20.980;2022-10-17T07:08:27;19.63;;;15.27;;
17606;SDS011;8922;52.240;20.980;2022-10-17T07:10:54;22.27;;;16.52;;
17606;SDS011;8922;52.240;20.980;2022-10-17T07:13:21;23.67;;;17.33;;
17606;SDS011;8922;52.240;20.980;2022-10-17T07:15:49;23.17;;;17.10;;
17606;SDS011;8922;52.240;20.980;2022-10-17T07:18:15;33.05;;;20.38;;
17606;SDS011;8922;52.240;20.980;2022-10-17T07:20:50;21.70;;;17.83;;
17606;SDS011;8922;52.240;20.980;2022-10-17T07:23:18;23.50;;;18.08;;
17606;SDS011;8922;52.240;20.980;2022-10-17T07:25:44;59.13;;;28.60;;
17606;SDS011;8922;52.240;20.980;2022-10-17T07:28:11;20.00;;;16.92;;
17606;SDS011;8922;52.240;20.980;2022-10-17T07:30:39;24.67;;;17.23;;
17606;SDS011;8922;52.240;20.980;2022-10-17T07:33:06;33.20;;;21.13;;
17606;SDS011;8922;52.240;20.980;2022-10-17T07:35:32;20.23;;;16.50;;
17606;SDS011;8922;52.240;20.980;2022-10-17T07:38:01;23.88;;;16.55;;
17606;SDS011;8922;52.240;20.980;2022-10-17T07:40:27;24.48;;;18.98;;
17606;SDS011;8922;52.240;20.980;2022-10-17T07:42:54;25.92;;;17.27;;
17606;SDS011;8922;52.240;20.980;2022-10-17T07:45:21;27.90;;;19.27;;
17606;SDS011;8922;52.240;20.980;2022-10-17T07:47:52;22.23;;;17.30;;
17606;SDS011;8922;52.240;20.980;2022-10-17T07:50:21;24.42;;;17.50;;
17606;SDS011;8922;52.240;20.980;2022-10-17T07:52:47;23.27;;;17.52;;
17606;SDS011;8922;52.240;20.980;2022-10-17T07:55:16;24.35;;;17.38;;
17606;SDS011;8922;52.240;20.980;2022-10-17T07:57:42;21.77;;;16.05;;
17606;SDS011;8922;52.240;20.980;2022-10-17T08:00:09;21.52;;;17.10;;
17606;SDS011;8922;52.240;20.980;2022-10-17T08:02:37;21.10;;;17.35;;
17606;SDS011;8922;52.240;20.980;2022-10-17T08:05:04;24.35;;;16.30;;
17606;SDS011;8922;52.240;20.980;2022-10-17T08:07:31;21.75;;;16.70;;
17606;SDS011;8922;52.240;20.980;2022-10-17T08:09:59;17.52;;;15.52;;
17606;SDS011;8922;52.240;20.980;2022-10-17T08:12:28;21.25;;;15.93;;
17606;SDS011;8922;52.240;20.980;2022-10-17T08:14:56;18.88;;;16.77;;
17606;SDS011;8922;52.240;20.980;2022-10-17T08:17:23;26.85;;;16.95;;
17606;SDS011;8922;52.240;20.980;2022-10-17T08:19:50;18.38;;;15.75;;
17606;SDS011;8922;52.240;20.980;2022-10-17T08:22:16;22.75;;;14.82;;
17606;SDS011;8922;52.240;20.980;2022-10-17T08:24:43;17.95;;;14.80;;
17606;SDS011;8922;52.240;20.980;2022-10-17T08:27:10;19.90;;;15.80;;
17606;SDS011;8922;52.240;20.980;2022-10-17T08:29:39;19.77;;;16.20;;
17606;SDS011;8922;52.240;20.980;2022-10-17T08:32:06;20.90;;;16.08;;
17606;SDS011;8922;52.240;20.980;2022-10-17T08:34:34;22.95;;;16.95;;
17606;SDS011;8922;52.240;20.980;2022-10-17T08:37:00;22.70;;;15.80;;
17606;SDS011;8922;52.240;20.980;2022-10-17T08:39:27;20.85;;;16.38;;
17606;SDS011;8922;52.240;20.980;2022-10-17T08:41:58;20.48;;;15.82;;
17606;SDS011;8922;52.240;20.980;2022-10-17T08:44:34;17.17;;;14.68;;
17606;SDS011;8922;52.240;20.980;2022-10-17T08:47:12;20.08;;;15.93;;
17606;SDS011;8922;52.240;20.980;2022-10-17T08:49:46;19.02;;;15.75;;
17606;SDS011;8922;52.240;20.980;2022-10-17T08:52:18;17.33;;;15.07;;
17606;SDS011;8922;52.240;20.980;2022-10-17T08:54:54;26.67;;;15.65;;
17606;SDS011;8922;52.240;20.980;2022-10-17T08:57:21;18.83;;;13.90;;
17606;SDS011;8922;52.240;20.980;2022-10-17T08:59:49;15.85;;;13.75;;
17606;SDS011;8922;52.240;20.980;2022-10-17T09:02:25;20.13;;;12.75;;
17606;SDS011;8922;52.240;20.980;2022-10-17T09:05:13;19.67;;;13.27;;
17606;SDS011;8922;52.240;20.980;2022-10-17T09:07:59;17.58;;;13.30;;
17606;SDS011;8922;52.240;20.980;2022-10-17T09:10:33;14.20;;;12.23;;
17606;SDS011;8922;52.240;20.980;2022-10-17T09:13:15;14.75;;;12.25;;
17606;SDS011;8922;52.240;20.980;2022-10-17T09:15:59;14.43;;;12.98;;
17606;SDS011;8922;52.240;20.980;2022-10-17T09:18:35;13.23;;;11.90;;
17606;SDS011;8922;52.240;20.980;2022-10-17T09:21:08;17.40;;;12.95;;
17606;SDS011;8922;52.240;20.980;2022-10-17T09:23:43;15.60;;;12.65;;
17606;SDS011;8922;52.240;20.980;2022-10-17T09:26:14;12.95;;;11.65;;
17606;SDS011;8922;52.240;20.980;2022-10-17T09:28:41;16.77;;;11.25;;
17606;SDS011;8922;52.240;20.980;2022-10-17T09:31:13;13.20;;;11.65;;
17606;SDS011;8922;52.240;20.980;2022-10-17T09:33:45;14.35;;;10.70;;
17606;SDS011;8922;52.240;20.980;2022-10-17T09:36:15;13.27;;;11.35;;
17606;SDS011;8922;52.240;20.980;2022-10-17T09:38:44;12.00;;;10.77;;
17606;SDS011;8922;52.240;20.980;2022-10-17T09:41:15;15.05;;;12.32;;
17606;SDS011;8922;52.240;20.980;2022-10-17T09:43:45;13.02;;;11.40;;
17606;SDS011;8922;52.240;20.980;2022-10-17T09:46:14;12.30;;;10.98;;
17606;SDS011;8922;52.240;20.980;2022-10-17T09:48:46;13.88;;;11.32;;
17606;SDS011;8922;52.240;20.980;2022-10-17T09:51:16;12.73;;;11.32;;
17606;SDS011;8922;52.240;20.980;2022-10-17T09:53:44;12.68;;;11.10;;
17606;SDS011;8922;52.240;20.980;2022-10-17T09:56:15;12.15;;;10.95;;
17606;SDS011;8922;52.240;20.980;2022-10-17T09:58:45;12.57;;;10.48;;
17606;SDS011;8922;52.240;20.980;2022-10-17T10:01:19;12.27;;;10.60;;
17606;SDS011;8922;52.240;20.980;2022-10-17T10:03:47;13.57;;;10.18;;
17606;SDS011;8922;52.240;20.980;2022-10-17T10:06:33;11.88;;;10.52;;
17606;SDS011;8922;52.240;20.980;2022-10-17T10:09:00;11.38;;;10.20;;
17606;SDS011;8922;52.240;20.980;2022-10-17T10:11:43;12.57;;;10.20;;
17606;SDS011;8922;52.240;20.980;2022-10-17T10:14:11;10.98;;;9.88;;
17606;SDS011;8922;52.240;20.980;2022-10-17T10:16:50;10.40;;;9.40;;
17606;SDS011;8922;52.240;20.980;2022-10-17T10:19:19;9.90;;;8.93;;
17606;SDS011;8922;52.240;20.980;2022-10-17T10:21:53;10.73;;;9.70;;
17606;SDS011;8922;52.240;20.980;2022-10-17T10:24:21;10.20;;;9.07;;
17606;SDS011;8922;52.240;20.980;2022-10-17T10:26:51;10.02;;;9.07;;
17606;SDS011;8922;52.240;20.980;2022-10-17T10:29:21;10.05;;;9.05;;
17606;SDS011;8922;52.240;20.980;2022-10-17T10:31:54;10.80;;;9.50;;
17606;SDS011;8922;52.240;20.980;2022-10-17T10:34:22;12.95;;;8.00;;
17606;SDS011;8922;52.240;20.980;2022-10-17T10:37:01;10.75;;;8.57;;
17606;SDS011;8922;52.240;20.980;2022-10-17T10:39:36;12.50;;;8.70;;
17606;SDS011;8922;52.240;20.980;2022-10-17T10:42:15;9.80;;;8.63;;
17606;SDS011;8922;52.240;20.980;2022-10-17T10:44:48;9.27;;;7.82;;
17606;SDS011;8922;52.240;20.980;2022-10-17T10:47:21;17.30;;;8.55;;
17606;SDS011;8922;52.240;20.980;2022-10-17T10:49:50;8.57;;;7.72;;
17606;SDS011;8922;52.240;20.980;2022-10-17T10:52:24;14.00;;;8.20;;
17606;SDS011;8922;52.240;20.980;2022-10-17T10:54:58;9.50;;;8.15;;
17606;SDS011;8922;52.240;20.980;2022-10-17T10:57:35;10.35;;;8.45;;
17606;SDS011;8922;52.240;20.980;2022-10-17T11:00:05;9.07;;;8.18;;
17606;SDS011;8922;52.240;20.980;2022-10-17T11:02:42;9.52;;;8.48;;
17606;SDS011;8922;52.240;20.980;2022-10-17T11:05:17;11.30;;;8.90;;
17606;SDS011;8922;52.240;20.980;2022-10-17T11:07:49;9.45;;;8.38;;
17606;SDS011;8922;52.240;20.980;2022-10-17T11:10:21;11.00;;;8.32;;
17606;SDS011;8922;52.240;20.980;2022-10-17T11:12:55;9.63;;;8.68;;
17606;SDS011;8922;52.240;20.980;2022-10-17T11:15:27;11.65;;;8.73;;
17606;SDS011;8922;52.240;20.980;2022-10-17T11:18:01;9.30;;;8.40;;
17606;SDS011;8922;52.240;20.980;2022-10-17T11:20:33;10.73;;;8.10;;
17606;SDS011;8922;52.240;20.980;2022-10-17T11:23:13;12.15;;;8.73;;
17606;SDS011;8922;52.240;20.980;2022-10-17T11:25:44;9.32;;;8.45;;
17606;SDS011;8922;52.240;20.980;2022-10-17T11:28:13;8.82;;;7.93;;
17606;SDS011;8922;52.240;20.980;2022-10-17T11:30:46;8.70;;;7.90;;
17606;SDS011;8922;52.240;20.980;2022-10-17T11:33:19;10.20;;;8.75;;
17606;SDS011;8922;52.240;20.980;2022-10-17T11:35:51;12.02;;;8.40;;
17606;SDS011;8922;52.240;20.980;2022-10-17T11:38:20;9.18;;;8.27;;
17606;SDS011;8922;52.240;20.980;2022-10-17T11:40:53;8.93;;;8.07;;
17606;SDS011;8922;52.240;20.980;2022-10-17T11:43:24;11.60;;;8.55;;
17606;SDS011;8922;52.240;20.980;2022-10-17T11:45:57;9.05;;;8.15;;
17606;SDS011;8922;52.240;20.980;2022-10-17T11:48:31;9.80;;;8.82;;
17606;SDS011;8922;52.240;20.980;2022-10-17T11:51:04;10.20;;;9.13;;
17606;SDS011;8922;52.240;20.980;2022-10-17T11:53:40;9.93;;;9.00;;
17606;SDS011;8922;52.240;20.980;2022-10-17T11:56:13;12.45;;;9.25;;
17606;SDS011;8922;52.240;20.980;2022-10-17T11:58:46;12.98;;;8.60;;
17606;SDS011;8922;52.240;20.980;2022-10-17T12:01:21;10.20;;;8.45;;
17606;SDS011;8922;52.240;20.980;2022-10-17T12:04:10;9.70;;;8.80;;
17606;SDS011;8922;52.240;20.980;2022-10-17T12:06:47;10.48;;;8.80;;
17606;SDS011;8922;52.240;20.980;2022-10-17T12:09:27;10.93;;;8.90;;
17606;SDS011;8922;52.240;20.980;2022-10-17T12:12:02;10.15;;;8.32;;
17606;SDS011;8922;52.240;20.980;2022-10-17T12:14:33;10.75;;;9.07;;
17606;SDS011;8922;52.240;20.980;2022-10-17T12:17:05;13.10;;;9.50;;
17606;SDS011;8922;52.240;20.980;2022-10-17T12:19:49;9.73;;;8.73;;
17606;SDS011;8922;52.240;20.980;2022-10-17T12:22:18;11.75;;;9.13;;
17606;SDS011;8922;52.240;20.980;2022-10-17T12:24:54;11.85;;;9.52;;
17606;SDS011;8922;52.240;20.980;2022-10-17T12:27:23;9.65;;;8.75;;
17606;SDS011;8922;52.240;20.980;2022-10-17T12:29:58;10.18;;;8.63;;
17606;SDS011;8922;52.240;20.980;2022-10-17T12:32:26;11.88;;;9.18;;
17606;SDS011;8922;52.240;20.980;2022-10-17T12:34:55;12.18;;;8.20;;
17606;SDS011;8922;52.240;20.980;2022-10-17T12:49:22;12.23;;;9.48;;
17606;SDS011;8922;52.240;20.980;2022-10-17T12:52:14;10.23;;;8.90;;
17606;SDS011;8922;52.240;20.980;2022-10-17T12:54:47;11.82;;;9.02;;
17606;SDS011;8922;52.240;20.980;2022-10-17T12:57:19;10.73;;;9.38;;
17606;SDS011;8922;52.240;20.980;2022-10-17T12:59:49;13.70;;;9.68;;
17606;SDS011;8922;52.240;20.980;2022-10-17T13:02:19;10.95;;;9.75;;
17606;SDS011;8922;52.240;20.980;2022-10-17T13:04:48;13.68;;;9.82;;
17606;SDS011;8922;52.240;20.980;2022-10-17T13:07:20;11.30;;;10.00;;
17606;SDS011;8922;52.240;20.980;2022-10-17T13:09:48;11.32;;;9.38;;
17606;SDS011;8922;52.240;20.980;2022-10-17T13:12:24;12.82;;;9.85;;
17606;SDS011;8922;52.240;20.980;2022-10-17T13:14:52;17.05;;;10.27;;
17606;SDS011;8922;52.240;20.980;2022-10-17T13:17:22;13.82;;;9.65;;
17606;SDS011;8922;52.240;20.980;2022-10-17T13:19:49;11.98;;;9.13;;
17606;SDS011;8922;52.240;20.980;2022-10-17T13:22:17;10.95;;;9.73;;
17606;SDS011;8922;52.240;20.980;2022-10-17T13:24:47;13.23;;;10.60;;
17606;SDS011;8922;52.240;20.980;2022-10-17T13:27:23;11.35;;;9.77;;
17606;SDS011;8922;52.240;20.980;2022-10-17T13:29:52;12.82;;;9.43;;
17606;SDS011;8922;52.240;20.980;2022-10-17T13:32:24;12.73;;;9.38;;
17606;SDS011;8922;52.240;20.980;2022-10-17T13:35:05;16.08;;;11.02;;
17606;SDS011;8922;52.240;20.980;2022-10-17T13:37:35;14.02;;;10.32;;
17606;SDS011;8922;52.240;20.980;2022-10-17T13:40:04;12.50;;;9.75;;
17606;SDS011;8922;52.240;20.980;2022-10-17T13:42:35;13.73;;;10.43;;
17606;SDS011;8922;52.240;20.980;2022-10-17T13:45:05;12.48;;;10.30;;
17606;SDS011;8922;52.240;20.980;2022-10-17T13:47:41;12.25;;;9.77;;
17606;SDS011;8922;52.240;20.980;2022-10-17T13:50:12;12.20;;;9.70;;
17606;SDS011;8922;52.240;20.980;2022-10-17T13:52:47;15.50;;;10.93;;
17606;SDS011;8922;52.240;20.980;2022-10-17T13:55:15;14.63;;;9.65;;
17606;SDS011;8922;52.240;20.980;2022-10-17T13:57:44;13.18;;;10.25;;
17606;SDS011;8922;52.240;20.980;2022-10-17T14:00:14;14.15;;;10.07;;
17606;SDS011;8922;52.240;20.980;2022-10-17T14:02:44;14.27;;;10.68;;
17606;SDS011;8922;52.240;20.980;2022-10-17T14:05:13;15.43;;;11.43;;
17606;SDS011;8922;52.240;20.980;2022-10-17T14:07:43;16.02;;;10.48;;
17606;SDS011;8922;52.240;20.980;2022-10-17T14:10:20;13.98;;;10.10;;
17606;SDS011;8922;52.240;20.980;2022-10-17T14:12:49;12.65;;;10.15;;
17606;SDS011;8922;52.240;20.980;2022-10-17T14:15:17;11.60;;;9.80;;
17606;SDS011;8922;52.240;20.980;2022-10-17T14:17:52;15.45;;;9.57;;
17606;SDS011;8922;52.240;20.980;2022-10-17T14:20:20;17.08;;;10.38;;
17606;SDS011;8922;52.240;20.980;2022-10-17T14:22:48;14.50;;;10.20;;
17606;SDS011;8922;52.240;20.980;2022-10-17T14:25:27;20.08;;;10.68;;
17606;SDS011;8922;52.240;20.980;2022-10-17T14:27:59;14.88;;;10.48;;
17606;SDS011;8922;52.240;20.980;2022-10-17T14:30:32;15.40;;;10.43;;
17606;SDS011;8922;52.240;20.980;2022-10-17T14:33:01;16.30;;;10.88;;
17606;SDS011;8922;52.240;20.980;2022-10-17T14:35:31;19.33;;;10.13;;
17606;SDS011;8922;52.240;20.980;2022-10-17T14:37:59;19.13;;;10.00;;
17606;SDS011;8922;52.240;20.980;2022-10-17T14:40:29;15.05;;;9.77;;
17606;SDS011;8922;52.240;20.980;2022-10-17T14:42:57;15.82;;;10.48;;
17606;SDS011;8922;52.240;20.980;2022-10-17T14:45:29;14.25;;;10.32;;
17606;SDS011;8922;52.240;20.980;2022-10-17T14:47:59;17.90;;;10.57;;
17606;SDS011;8922;52.240;20.980;2022-10-17T14:50:29;16.70;;;10.05;;
17606;SDS011;8922;52.240;20.980;2022-10-17T14:52:57;20.00;;;11.27;;
17606;SDS011;8922;52.240;20.980;2022-10-17T14:55:27;19.00;;;11.35;;